sensor_id;sensor_type;location;lat;lon;timestamp;P1;durP1;ratioP1;P2;durP2;ratioP2
32780;SDS011;19136;47.032;15.502;2023-04-06T00:00:50;13.90;;;6.03;;
32780;SDS011;19136;47.032;15.502;2023-04-06T00:03:15;15.73;;;5.05;;
32780;SDS011;19136;47.032;15.502;2023-04-06T00:05:41;18.65;;;5.72;;
32780;SDS011;19136;47.032;15.502;2023-04-06T00:08:07;17.10;;;6.47;;
32780;SDS011;19136;47.032;15.502;2023-04-06T00:10:33;18.38;;;6.95;;
32780;SDS011;19136;47.032;15.502;2023-04-06T00:12:58;19.30;;;6.45;;
32780;SDS011;19136;47.032;15.502;2023-04-06T00:15:24;19.63;;;6.30;;
32780;SDS011;19136;47.032;15.502;2023-04-06T00:17:50;18.33;;;6.43;;
32780;SDS011;19136;47.032;15.502;2023-04-06T00:20:16;16.75;;;6.10;;
32780;SDS011;19136;47.032;15.502;2023-04-06T00:22:43;19.08;;;6.35;;
32780;SDS011;19136;47.032;15.502;2023-04-06T00:25:09;17.58;;;7.22;;
32780;SDS011;19136;47.032;15.502;2023-04-06T00:27:38;16.98;;;6.60;;
32780;SDS011;19136;47.032;15.502;2023-04-06T00:30:04;19.00;;;7.15;;
32780;SDS011;19136;47.032;15.502;2023-04-06T00:32:30;14.85;;;5.82;;
32780;SDS011;19136;47.032;15.502;2023-04-06T00:34:56;15.00;;;5.97;;
32780;SDS011;19136;47.032;15.502;2023-04-06T00:37:22;14.30;;;5.40;;
32780;SDS011;19136;47.032;15.502;2023-04-06T00:39:48;13.43;;;5.22;;
32780;SDS011;19136;47.032;15.502;2023-04-06T00:42:14;13.77;;;5.85;;
32780;SDS011;19136;47.032;15.502;2023-04-06T00:44:42;15.40;;;5.45;;
32780;SDS011;19136;47.032;15.502;2023-04-06T00:47:09;17.70;;;5.30;;
32780;SDS011;19136;47.032;15.502;2023-04-06T00:49:34;16.20;;;5.88;;
32780;SDS011;19136;47.032;15.502;2023-04-06T00:52:00;11.07;;;5.10;;
32780;SDS011;19136;47.032;15.502;2023-04-06T00:54:27;14.00;;;5.88;;
32780;SDS011;19136;47.032;15.502;2023-04-06T00:56:53;17.30;;;5.60;;
32780;SDS011;19136;47.032;15.502;2023-04-06T00:59:20;13.50;;;5.47;;
32780;SDS011;19136;47.032;15.502;2023-04-06T01:01:46;16.00;;;5.35;;
32780;SDS011;19136;47.032;15.502;2023-04-06T01:04:34;12.88;;;5.40;;
32780;SDS011;19136;47.032;15.502;2023-04-06T01:07:02;9.38;;;4.93;;
32780;SDS011;19136;47.032;15.502;2023-04-06T01:09:36;11.85;;;4.80;;
32780;SDS011;19136;47.032;15.502;2023-04-06T01:12:06;12.07;;;5.05;;
32780;SDS011;19136;47.032;15.502;2023-04-06T01:14:33;11.93;;;5.72;;
32780;SDS011;19136;47.032;15.502;2023-04-06T01:17:00;10.10;;;4.80;;
32780;SDS011;19136;47.032;15.502;2023-04-06T01:19:29;13.20;;;5.10;;
32780;SDS011;19136;47.032;15.502;2023-04-06T01:21:55;14.45;;;5.30;;
32780;SDS011;19136;47.032;15.502;2023-04-06T01:24:29;10.80;;;5.22;;
32780;SDS011;19136;47.032;15.502;2023-04-06T01:27:02;16.00;;;5.07;;
32780;SDS011;19136;47.032;15.502;2023-04-06T01:29:54;11.68;;;5.40;;
32780;SDS011;19136;47.032;15.502;2023-04-06T01:32:36;13.57;;;5.25;;
32780;SDS011;19136;47.032;15.502;2023-04-06T01:35:02;15.18;;;5.07;;
32780;SDS011;19136;47.032;15.502;2023-04-06T01:37:31;15.23;;;5.25;;
32780;SDS011;19136;47.032;15.502;2023-04-06T01:40:00;16.70;;;5.82;;
32780;SDS011;19136;47.032;15.502;2023-04-06T01:42:39;12.75;;;5.28;;
32780;SDS011;19136;47.032;15.502;2023-04-06T01:45:06;11.77;;;5.53;;
32780;SDS011;19136;47.032;15.502;2023-04-06T01:47:32;11.52;;;5.47;;
32780;SDS011;19136;47.032;15.502;2023-04-06T01:49:59;12.68;;;5.40;;
32780;SDS011;19136;47.032;15.502;2023-04-06T01:52:24;12.68;;;4.88;;
32780;SDS011;19136;47.032;15.502;2023-04-06T01:54:52;9.60;;;4.72;;
32780;SDS011;19136;47.032;15.502;2023-04-06T01:57:36;11.20;;;5.53;;
32780;SDS011;19136;47.032;15.502;2023-04-06T02:00:15;11.32;;;5.60;;
32780;SDS011;19136;47.032;15.502;2023-04-06T02:02:47;13.98;;;5.32;;
32780;SDS011;19136;47.032;15.502;2023-04-06T02:05:19;13.68;;;6.03;;
32780;SDS011;19136;47.032;15.502;2023-04-06T02:07:45;9.82;;;5.35;;
32780;SDS011;19136;47.032;15.502;2023-04-06T02:10:15;18.73;;;6.80;;
32780;SDS011;19136;47.032;15.502;2023-04-06T02:12:42;12.43;;;5.90;;
32780;SDS011;19136;47.032;15.502;2023-04-06T02:15:11;13.93;;;5.57;;
32780;SDS011;19136;47.032;15.502;2023-04-06T02:17:38;12.15;;;5.35;;
32780;SDS011;19136;47.032;15.502;2023-04-06T02:20:05;17.00;;;6.13;;
32780;SDS011;19136;47.032;15.502;2023-04-06T02:22:31;14.20;;;5.55;;
32780;SDS011;19136;47.032;15.502;2023-04-06T02:24:58;14.02;;;5.78;;
32780;SDS011;19136;47.032;15.502;2023-04-06T02:27:25;14.35;;;6.32;;
32780;SDS011;19136;47.032;15.502;2023-04-06T02:29:50;14.35;;;6.25;;
32780;SDS011;19136;47.032;15.502;2023-04-06T02:32:19;16.38;;;5.50;;
32780;SDS011;19136;47.032;15.502;2023-04-06T02:34:45;15.18;;;5.70;;
32780;SDS011;19136;47.032;15.502;2023-04-06T02:37:11;12.23;;;5.35;;
32780;SDS011;19136;47.032;15.502;2023-04-06T02:39:37;13.20;;;6.15;;
32780;SDS011;19136;47.032;15.502;2023-04-06T02:42:06;14.85;;;5.57;;
32780;SDS011;19136;47.032;15.502;2023-04-06T02:44:32;11.27;;;5.60;;
32780;SDS011;19136;47.032;15.502;2023-04-06T02:46:57;11.73;;;5.88;;
32780;SDS011;19136;47.032;15.502;2023-04-06T02:49:25;10.63;;;5.07;;
32780;SDS011;19136;47.032;15.502;2023-04-06T02:51:54;15.52;;;5.57;;
32780;SDS011;19136;47.032;15.502;2023-04-06T02:54:24;15.40;;;5.82;;
32780;SDS011;19136;47.032;15.502;2023-04-06T02:56:50;10.02;;;5.57;;
32780;SDS011;19136;47.032;15.502;2023-04-06T02:59:16;19.15;;;5.95;;
32780;SDS011;19136;47.032;15.502;2023-04-06T03:01:49;10.93;;;5.95;;
32780;SDS011;19136;47.032;15.502;2023-04-06T03:04:14;15.50;;;5.43;;
32780;SDS011;19136;47.032;15.502;2023-04-06T03:06:40;12.63;;;6.13;;
32780;SDS011;19136;47.032;15.502;2023-04-06T03:09:17;13.18;;;5.35;;
32780;SDS011;19136;47.032;15.502;2023-04-06T03:11:43;14.43;;;5.60;;
32780;SDS011;19136;47.032;15.502;2023-04-06T03:14:09;11.23;;;5.32;;
32780;SDS011;19136;47.032;15.502;2023-04-06T03:16:34;10.15;;;5.50;;
32780;SDS011;19136;47.032;15.502;2023-04-06T03:19:01;14.30;;;6.15;;
32780;SDS011;19136;47.032;15.502;2023-04-06T03:21:29;11.60;;;5.35;;
32780;SDS011;19136;47.032;15.502;2023-04-06T03:23:55;13.88;;;6.43;;
32780;SDS011;19136;47.032;15.502;2023-04-06T03:26:20;14.48;;;5.45;;
32780;SDS011;19136;47.032;15.502;2023-04-06T03:28:48;11.60;;;5.93;;
32780;SDS011;19136;47.032;15.502;2023-04-06T03:31:15;17.27;;;6.30;;
32780;SDS011;19136;47.032;15.502;2023-04-06T03:33:55;14.57;;;5.38;;
32780;SDS011;19136;47.032;15.502;2023-04-06T03:36:24;14.10;;;5.82;;
32780;SDS011;19136;47.032;15.502;2023-04-06T03:38:53;14.70;;;6.30;;
32780;SDS011;19136;47.032;15.502;2023-04-06T03:41:19;14.00;;;6.38;;
32780;SDS011;19136;47.032;15.502;2023-04-06T03:43:53;14.95;;;6.72;;
32780;SDS011;19136;47.032;15.502;2023-04-06T03:46:18;16.58;;;7.35;;
32780;SDS011;19136;47.032;15.502;2023-04-06T03:48:48;20.95;;;7.85;;
32780;SDS011;19136;47.032;15.502;2023-04-06T03:51:15;21.33;;;7.30;;
32780;SDS011;19136;47.032;15.502;2023-04-06T03:53:41;16.85;;;7.57;;
32780;SDS011;19136;47.032;15.502;2023-04-06T03:56:06;22.00;;;7.32;;
32780;SDS011;19136;47.032;15.502;2023-04-06T03:58:33;25.20;;;7.00;;
32780;SDS011;19136;47.032;15.502;2023-04-06T04:00:58;14.95;;;6.32;;
32780;SDS011;19136;47.032;15.502;2023-04-06T04:03:24;18.67;;;6.90;;
32780;SDS011;19136;47.032;15.502;2023-04-06T04:05:52;15.07;;;6.13;;
32780;SDS011;19136;47.032;15.502;2023-04-06T04:08:18;21.88;;;6.93;;
32780;SDS011;19136;47.032;15.502;2023-04-06T04:10:43;17.95;;;6.95;;
32780;SDS011;19136;47.032;15.502;2023-04-06T04:13:09;21.60;;;7.00;;
32780;SDS011;19136;47.032;15.502;2023-04-06T04:15:35;21.00;;;7.93;;
32780;SDS011;19136;47.032;15.502;2023-04-06T04:18:00;25.83;;;8.63;;
32780;SDS011;19136;47.032;15.502;2023-04-06T04:20:26;22.38;;;7.50;;
32780;SDS011;19136;47.032;15.502;2023-04-06T04:22:54;20.48;;;7.18;;
32780;SDS011;19136;47.032;15.502;2023-04-06T04:25:20;21.20;;;7.82;;
32780;SDS011;19136;47.032;15.502;2023-04-06T04:27:48;19.73;;;7.75;;
32780;SDS011;19136;47.032;15.502;2023-04-06T04:30:13;25.45;;;7.35;;
32780;SDS011;19136;47.032;15.502;2023-04-06T04:32:40;15.98;;;6.85;;
32780;SDS011;19136;47.032;15.502;2023-04-06T04:35:08;22.38;;;7.32;;
32780;SDS011;19136;47.032;15.502;2023-04-06T04:37:36;21.27;;;7.47;;
32780;SDS011;19136;47.032;15.502;2023-04-06T04:40:03;16.98;;;7.38;;
32780;SDS011;19136;47.032;15.502;2023-04-06T04:42:35;20.77;;;7.53;;
32780;SDS011;19136;47.032;15.502;2023-04-06T04:45:03;16.88;;;7.03;;
32780;SDS011;19136;47.032;15.502;2023-04-06T04:47:35;16.83;;;7.45;;
32780;SDS011;19136;47.032;15.502;2023-04-06T04:50:02;22.67;;;9.18;;
32780;SDS011;19136;47.032;15.502;2023-04-06T04:52:29;18.25;;;6.97;;
32780;SDS011;19136;47.032;15.502;2023-04-06T04:55:01;24.13;;;7.13;;
32780;SDS011;19136;47.032;15.502;2023-04-06T04:57:28;21.67;;;6.88;;
32780;SDS011;19136;47.032;15.502;2023-04-06T04:59:53;15.38;;;6.68;;
32780;SDS011;19136;47.032;15.502;2023-04-06T05:02:19;15.82;;;7.45;;
32780;SDS011;19136;47.032;15.502;2023-04-06T05:05:08;16.15;;;7.00;;
32780;SDS011;19136;47.032;15.502;2023-04-06T05:07:34;24.77;;;7.90;;
32780;SDS011;19136;47.032;15.502;2023-04-06T05:10:00;19.98;;;6.82;;
32780;SDS011;19136;47.032;15.502;2023-04-06T05:12:30;16.25;;;6.75;;
32780;SDS011;19136;47.032;15.502;2023-04-06T05:15:04;28.50;;;7.30;;
32780;SDS011;19136;47.032;15.502;2023-04-06T05:17:30;19.98;;;7.97;;
32780;SDS011;19136;47.032;15.502;2023-04-06T05:19:56;22.15;;;6.40;;
32780;SDS011;19136;47.032;15.502;2023-04-06T05:22:24;21.95;;;7.30;;
32780;SDS011;19136;47.032;15.502;2023-04-06T05:25:01;24.17;;;7.80;;
32780;SDS011;19136;47.032;15.502;2023-04-06T05:27:27;29.05;;;8.10;;
32780;SDS011;19136;47.032;15.502;2023-04-06T05:29:53;21.23;;;8.27;;
32780;SDS011;19136;47.032;15.502;2023-04-06T05:32:19;21.73;;;8.07;;
32780;SDS011;19136;47.032;15.502;2023-04-06T05:34:48;21.83;;;6.68;;
32780;SDS011;19136;47.032;15.502;2023-04-06T05:37:17;17.88;;;7.75;;
32780;SDS011;19136;47.032;15.502;2023-04-06T05:39:43;22.20;;;7.60;;
32780;SDS011;19136;47.032;15.502;2023-04-06T05:42:09;30.13;;;11.60;;
32780;SDS011;19136;47.032;15.502;2023-04-06T05:44:51;35.80;;;11.27;;
32780;SDS011;19136;47.032;15.502;2023-04-06T05:47:17;19.92;;;8.32;;
32780;SDS011;19136;47.032;15.502;2023-04-06T05:49:47;19.50;;;7.38;;
32780;SDS011;19136;47.032;15.502;2023-04-06T05:52:21;16.75;;;6.85;;
32780;SDS011;19136;47.032;15.502;2023-04-06T05:54:48;20.00;;;7.30;;
32780;SDS011;19136;47.032;15.502;2023-04-06T05:57:14;17.73;;;6.20;;
32780;SDS011;19136;47.032;15.502;2023-04-06T05:59:39;21.17;;;7.65;;
32780;SDS011;19136;47.032;15.502;2023-04-06T06:02:05;33.00;;;8.25;;
32780;SDS011;19136;47.032;15.502;2023-04-06T06:04:35;47.50;;;14.13;;
32780;SDS011;19136;47.032;15.502;2023-04-06T06:07:01;43.67;;;13.57;;
32780;SDS011;19136;47.032;15.502;2023-04-06T06:09:35;44.30;;;12.77;;
32780;SDS011;19136;47.032;15.502;2023-04-06T06:12:11;30.80;;;9.98;;
32780;SDS011;19136;47.032;15.502;2023-04-06T06:14:37;17.08;;;7.82;;
32780;SDS011;19136;47.032;15.502;2023-04-06T06:17:03;23.42;;;7.85;;
32780;SDS011;19136;47.032;15.502;2023-04-06T06:19:29;25.73;;;8.15;;
32780;SDS011;19136;47.032;15.502;2023-04-06T06:21:59;24.10;;;8.52;;
32780;SDS011;19136;47.032;15.502;2023-04-06T06:24:27;28.13;;;9.65;;
32780;SDS011;19136;47.032;15.502;2023-04-06T06:26:56;23.83;;;8.20;;
32780;SDS011;19136;47.032;15.502;2023-04-06T06:29:25;24.23;;;8.85;;
32780;SDS011;19136;47.032;15.502;2023-04-06T06:31:50;23.95;;;8.68;;
32780;SDS011;19136;47.032;15.502;2023-04-06T06:34:16;16.88;;;7.32;;
32780;SDS011;19136;47.032;15.502;2023-04-06T06:36:42;26.40;;;7.47;;
32780;SDS011;19136;47.032;15.502;2023-04-06T06:39:11;17.42;;;7.53;;
32780;SDS011;19136;47.032;15.502;2023-04-06T06:41:37;21.95;;;8.48;;
32780;SDS011;19136;47.032;15.502;2023-04-06T06:44:03;19.77;;;7.20;;
32780;SDS011;19136;47.032;15.502;2023-04-06T06:46:29;18.85;;;7.25;;
32780;SDS011;19136;47.032;15.502;2023-04-06T06:48:54;22.63;;;8.50;;
32780;SDS011;19136;47.032;15.502;2023-04-06T06:51:20;22.92;;;7.72;;
32780;SDS011;19136;47.032;15.502;2023-04-06T06:53:45;23.98;;;7.88;;
32780;SDS011;19136;47.032;15.502;2023-04-06T06:56:11;26.10;;;8.25;;
32780;SDS011;19136;47.032;15.502;2023-04-06T06:58:38;25.45;;;7.03;;
32780;SDS011;19136;47.032;15.502;2023-04-06T07:01:03;21.63;;;7.72;;
32780;SDS011;19136;47.032;15.502;2023-04-06T07:03:30;17.15;;;6.93;;
32780;SDS011;19136;47.032;15.502;2023-04-06T07:05:56;23.02;;;7.07;;
32780;SDS011;19136;47.032;15.502;2023-04-06T07:08:23;18.83;;;6.97;;
32780;SDS011;19136;47.032;15.502;2023-04-06T07:10:50;17.23;;;6.97;;
32780;SDS011;19136;47.032;15.502;2023-04-06T07:13:18;18.80;;;7.45;;
32780;SDS011;19136;47.032;15.502;2023-04-06T07:15:48;25.77;;;6.75;;
32780;SDS011;19136;47.032;15.502;2023-04-06T07:18:15;25.85;;;7.82;;
32780;SDS011;19136;47.032;15.502;2023-04-06T07:20:41;23.02;;;7.88;;
32780;SDS011;19136;47.032;15.502;2023-04-06T07:23:07;21.80;;;8.10;;
32780;SDS011;19136;47.032;15.502;2023-04-06T07:25:32;23.15;;;7.82;;
32780;SDS011;19136;47.032;15.502;2023-04-06T07:27:58;19.63;;;7.93;;
32780;SDS011;19136;47.032;15.502;2023-04-06T07:30:24;22.15;;;7.45;;
32780;SDS011;19136;47.032;15.502;2023-04-06T07:32:53;13.15;;;6.47;;
32780;SDS011;19136;47.032;15.502;2023-04-06T07:35:22;22.40;;;7.57;;
32780;SDS011;19136;47.032;15.502;2023-04-06T07:37:48;30.15;;;10.73;;
32780;SDS011;19136;47.032;15.502;2023-04-06T07:40:14;15.23;;;6.53;;
32780;SDS011;19136;47.032;15.502;2023-04-06T07:42:40;12.30;;;5.10;;
32780;SDS011;19136;47.032;15.502;2023-04-06T07:45:07;17.88;;;7.00;;
32780;SDS011;19136;47.032;15.502;2023-04-06T07:47:32;13.35;;;4.95;;
32780;SDS011;19136;47.032;15.502;2023-04-06T07:49:59;13.48;;;4.85;;
32780;SDS011;19136;47.032;15.502;2023-04-06T07:52:25;15.77;;;5.53;;
32780;SDS011;19136;47.032;15.502;2023-04-06T07:54:50;18.15;;;6.35;;
32780;SDS011;19136;47.032;15.502;2023-04-06T07:57:16;20.42;;;5.60;;
32780;SDS011;19136;47.032;15.502;2023-04-06T07:59:42;16.02;;;6.00;;
32780;SDS011;19136;47.032;15.502;2023-04-06T08:02:07;16.30;;;5.93;;
32780;SDS011;19136;47.032;15.502;2023-04-06T08:04:33;15.13;;;5.15;;
32780;SDS011;19136;47.032;15.502;2023-04-06T08:06:59;12.57;;;6.10;;
32780;SDS011;19136;47.032;15.502;2023-04-06T08:09:25;14.35;;;6.22;;
32780;SDS011;19136;47.032;15.502;2023-04-06T08:11:50;13.10;;;5.63;;
32780;SDS011;19136;47.032;15.502;2023-04-06T08:14:16;11.23;;;5.35;;
32780;SDS011;19136;47.032;15.502;2023-04-06T08:16:41;16.02;;;5.25;;
32780;SDS011;19136;47.032;15.502;2023-04-06T08:19:07;11.75;;;5.10;;
32780;SDS011;19136;47.032;15.502;2023-04-06T08:21:35;12.38;;;5.50;;
32780;SDS011;19136;47.032;15.502;2023-04-06T08:24:01;12.05;;;4.80;;
32780;SDS011;19136;47.032;15.502;2023-04-06T08:26:27;12.75;;;4.40;;
32780;SDS011;19136;47.032;15.502;2023-04-06T08:28:53;11.05;;;4.97;;
32780;SDS011;19136;47.032;15.502;2023-04-06T08:31:19;8.88;;;4.30;;
32780;SDS011;19136;47.032;15.502;2023-04-06T08:33:44;12.05;;;4.60;;
32780;SDS011;19136;47.032;15.502;2023-04-06T08:36:11;11.02;;;4.35;;
32780;SDS011;19136;47.032;15.502;2023-04-06T08:38:38;13.25;;;4.60;;
32780;SDS011;19136;47.032;15.502;2023-04-06T08:41:11;10.68;;;5.05;;
32780;SDS011;19136;47.032;15.502;2023-04-06T08:43:47;13.30;;;5.25;;
32780;SDS011;19136;47.032;15.502;2023-04-06T08:46:20;11.93;;;4.75;;
32780;SDS011;19136;47.032;15.502;2023-04-06T08:48:46;10.50;;;4.43;;
32780;SDS011;19136;47.032;15.502;2023-04-06T08:51:15;9.02;;;3.80;;
32780;SDS011;19136;47.032;15.502;2023-04-06T08:53:41;10.35;;;4.65;;
32780;SDS011;19136;47.032;15.502;2023-04-06T08:56:06;8.30;;;4.20;;
32780;SDS011;19136;47.032;15.502;2023-04-06T08:58:34;14.38;;;4.50;;
32780;SDS011;19136;47.032;15.502;2023-04-06T09:01:02;10.32;;;3.90;;
32780;SDS011;19136;47.032;15.502;2023-04-06T09:03:31;9.93;;;3.83;;
32780;SDS011;19136;47.032;15.502;2023-04-06T09:06:04;12.07;;;4.35;;
32780;SDS011;19136;47.032;15.502;2023-04-06T09:08:32;8.88;;;3.65;;
32780;SDS011;19136;47.032;15.502;2023-04-06T09:11:02;6.63;;;3.60;;
32780;SDS011;19136;47.032;15.502;2023-04-06T09:13:28;9.25;;;4.05;;
32780;SDS011;19136;47.032;15.502;2023-04-06T09:16:03;7.32;;;3.90;;
32780;SDS011;19136;47.032;15.502;2023-04-06T09:18:30;5.30;;;2.67;;
32780;SDS011;19136;47.032;15.502;2023-04-06T09:21:01;8.63;;;3.05;;
32780;SDS011;19136;47.032;15.502;2023-04-06T09:23:28;9.52;;;3.00;;
32780;SDS011;19136;47.032;15.502;2023-04-06T09:26:07;6.90;;;2.70;;
32780;SDS011;19136;47.032;15.502;2023-04-06T09:28:46;8.63;;;2.78;;
32780;SDS011;19136;47.032;15.502;2023-04-06T09:31:15;4.57;;;2.75;;
32780;SDS011;19136;47.032;15.502;2023-04-06T09:33:42;6.57;;;2.83;;
32780;SDS011;19136;47.032;15.502;2023-04-06T09:36:09;6.32;;;3.25;;
32780;SDS011;19136;47.032;15.502;2023-04-06T09:38:39;7.82;;;2.97;;
32780;SDS011;19136;47.032;15.502;2023-04-06T09:41:26;10.32;;;3.15;;
32780;SDS011;19136;47.032;15.502;2023-04-06T09:44:08;11.32;;;2.90;;
32780;SDS011;19136;47.032;15.502;2023-04-06T09:46:35;6.82;;;2.60;;
32780;SDS011;19136;47.032;15.502;2023-04-06T09:49:03;5.85;;;2.10;;
32780;SDS011;19136;47.032;15.502;2023-04-06T09:51:30;4.60;;;2.22;;
32780;SDS011;19136;47.032;15.502;2023-04-06T09:53:57;5.28;;;2.75;;
32780;SDS011;19136;47.032;15.502;2023-04-06T09:56:30;10.60;;;2.57;;
32780;SDS011;19136;47.032;15.502;2023-04-06T09:59:01;5.70;;;2.88;;
32780;SDS011;19136;47.032;15.502;2023-04-06T10:01:29;6.70;;;2.58;;
32780;SDS011;19136;47.032;15.502;2023-04-06T10:06:58;4.38;;;2.17;;
32780;SDS011;19136;47.032;15.502;2023-04-06T10:09:24;7.72;;;2.65;;
32780;SDS011;19136;47.032;15.502;2023-04-06T10:11:51;7.35;;;2.65;;
32780;SDS011;19136;47.032;15.502;2023-04-06T10:14:17;5.13;;;2.40;;
32780;SDS011;19136;47.032;15.502;2023-04-06T10:16:42;5.50;;;2.60;;
32780;SDS011;19136;47.032;15.502;2023-04-06T10:19:13;6.72;;;2.80;;
32780;SDS011;19136;47.032;15.502;2023-04-06T10:21:41;4.32;;;2.35;;
32780;SDS011;19136;47.032;15.502;2023-04-06T10:24:09;8.77;;;2.70;;
32780;SDS011;19136;47.032;15.502;2023-04-06T10:26:38;3.60;;;2.05;;
32780;SDS011;19136;47.032;15.502;2023-04-06T10:29:04;5.20;;;2.70;;
32780;SDS011;19136;47.032;15.502;2023-04-06T10:31:30;4.35;;;2.45;;
32780;SDS011;19136;47.032;15.502;2023-04-06T10:33:57;4.70;;;2.22;;
32780;SDS011;19136;47.032;15.502;2023-04-06T10:36:25;10.80;;;2.50;;
32780;SDS011;19136;47.032;15.502;2023-04-06T10:39:01;8.40;;;2.63;;
32780;SDS011;19136;47.032;15.502;2023-04-06T10:41:41;5.68;;;2.80;;
32780;SDS011;19136;47.032;15.502;2023-04-06T10:44:07;4.00;;;2.30;;
32780;SDS011;19136;47.032;15.502;2023-04-06T10:46:33;5.25;;;2.13;;
32780;SDS011;19136;47.032;15.502;2023-04-06T10:49:32;4.40;;;2.13;;
32780;SDS011;19136;47.032;15.502;2023-04-06T10:51:54;4.13;;;2.30;;
32780;SDS011;19136;47.032;15.502;2023-04-06T10:54:21;6.22;;;2.33;;
32780;SDS011;19136;47.032;15.502;2023-04-06T10:56:50;3.28;;;1.80;;
32780;SDS011;19136;47.032;15.502;2023-04-06T10:59:19;5.40;;;2.60;;
32780;SDS011;19136;47.032;15.502;2023-04-06T11:01:45;3.92;;;2.15;;
32780;SDS011;19136;47.032;15.502;2023-04-06T11:04:15;6.00;;;2.35;;
32780;SDS011;19136;47.032;15.502;2023-04-06T11:06:41;4.60;;;2.28;;
32780;SDS011;19136;47.032;15.502;2023-04-06T11:09:07;4.95;;;2.20;;
32780;SDS011;19136;47.032;15.502;2023-04-06T11:11:34;3.15;;;1.70;;
32780;SDS011;19136;47.032;15.502;2023-04-06T11:14:04;5.32;;;2.00;;
32780;SDS011;19136;47.032;15.502;2023-04-06T11:16:30;4.55;;;1.90;;
32780;SDS011;19136;47.032;15.502;2023-04-06T11:18:58;4.28;;;2.03;;
32780;SDS011;19136;47.032;15.502;2023-04-06T11:21:34;4.78;;;2.35;;
32780;SDS011;19136;47.032;15.502;2023-04-06T11:24:09;5.20;;;1.95;;
32780;SDS011;19136;47.032;15.502;2023-04-06T11:26:36;5.88;;;1.80;;
32780;SDS011;19136;47.032;15.502;2023-04-06T11:29:22;5.63;;;2.70;;
32780;SDS011;19136;47.032;15.502;2023-04-06T11:31:53;3.70;;;1.90;;
32780;SDS011;19136;47.032;15.502;2023-04-06T11:34:25;4.07;;;1.88;;
32780;SDS011;19136;47.032;15.502;2023-04-06T11:36:57;7.80;;;2.30;;
32780;SDS011;19136;47.032;15.502;2023-04-06T11:39:27;4.30;;;1.67;;
32780;SDS011;19136;47.032;15.502;2023-04-06T11:41:54;4.95;;;1.60;;
32780;SDS011;19136;47.032;15.502;2023-04-06T11:44:36;6.00;;;1.90;;
32780;SDS011;19136;47.032;15.502;2023-04-06T11:47:02;3.72;;;1.95;;
32780;SDS011;19136;47.032;15.502;2023-04-06T11:49:29;5.93;;;1.98;;
32780;SDS011;19136;47.032;15.502;2023-04-06T11:51:56;6.72;;;3.08;;
32780;SDS011;19136;47.032;15.502;2023-04-06T11:54:35;3.65;;;1.83;;
32780;SDS011;19136;47.032;15.502;2023-04-06T11:57:05;2.92;;;1.50;;
32780;SDS011;19136;47.032;15.502;2023-04-06T11:59:32;4.82;;;1.77;;
32780;SDS011;19136;47.032;15.502;2023-04-06T12:01:58;6.68;;;1.50;;
32780;SDS011;19136;47.032;15.502;2023-04-06T12:04:24;7.10;;;1.60;;
32780;SDS011;19136;47.032;15.502;2023-04-06T12:06:50;4.90;;;1.60;;
32780;SDS011;19136;47.032;15.502;2023-04-06T12:09:18;2.05;;;1.30;;
32780;SDS011;19136;47.032;15.502;2023-04-06T12:11:45;6.28;;;1.17;;
32780;SDS011;19136;47.032;15.502;2023-04-06T12:14:10;2.95;;;1.40;;
32780;SDS011;19136;47.032;15.502;2023-04-06T12:16:37;2.92;;;1.40;;
32780;SDS011;19136;47.032;15.502;2023-04-06T12:19:03;3.80;;;1.45;;
32780;SDS011;19136;47.032;15.502;2023-04-06T12:21:29;3.45;;;1.50;;
32780;SDS011;19136;47.032;15.502;2023-04-06T12:23:56;2.92;;;1.48;;
32780;SDS011;19136;47.032;15.502;2023-04-06T12:26:23;3.20;;;1.50;;
32780;SDS011;19136;47.032;15.502;2023-04-06T12:28:49;4.13;;;1.98;;
32780;SDS011;19136;47.032;15.502;2023-04-06T12:31:15;5.15;;;1.67;;
32780;SDS011;19136;47.032;15.502;2023-04-06T12:33:42;3.40;;;1.60;;
32780;SDS011;19136;47.032;15.502;2023-04-06T12:36:11;2.97;;;1.40;;
32780;SDS011;19136;47.032;15.502;2023-04-06T12:38:38;7.07;;;2.10;;
32780;SDS011;19136;47.032;15.502;2023-04-06T12:41:06;3.75;;;1.50;;
32780;SDS011;19136;47.032;15.502;2023-04-06T12:43:32;6.38;;;1.92;;
32780;SDS011;19136;47.032;15.502;2023-04-06T12:46:00;5.93;;;1.55;;
32780;SDS011;19136;47.032;15.502;2023-04-06T12:48:25;2.75;;;1.20;;
32780;SDS011;19136;47.032;15.502;2023-04-06T12:50:59;5.30;;;1.67;;
32780;SDS011;19136;47.032;15.502;2023-04-06T12:53:26;2.38;;;1.30;;
32780;SDS011;19136;47.032;15.502;2023-04-06T12:55:53;3.78;;;1.30;;
32780;SDS011;19136;47.032;15.502;2023-04-06T12:58:19;3.45;;;1.50;;
32780;SDS011;19136;47.032;15.502;2023-04-06T13:00:46;6.68;;;1.65;;
32780;SDS011;19136;47.032;15.502;2023-04-06T13:03:12;4.10;;;1.65;;
32780;SDS011;19136;47.032;15.502;2023-04-06T13:05:44;4.15;;;1.83;;
32780;SDS011;19136;47.032;15.502;2023-04-06T13:08:14;2.25;;;1.20;;
32780;SDS011;19136;47.032;15.502;2023-04-06T13:10:46;3.20;;;1.30;;
32780;SDS011;19136;47.032;15.502;2023-04-06T13:13:25;4.05;;;1.55;;
32780;SDS011;19136;47.032;15.502;2023-04-06T13:15:52;4.45;;;1.60;;
32780;SDS011;19136;47.032;15.502;2023-04-06T13:18:19;2.10;;;1.00;;
32780;SDS011;19136;47.032;15.502;2023-04-06T13:20:46;4.30;;;1.40;;
32780;SDS011;19136;47.032;15.502;2023-04-06T13:23:12;3.95;;;1.27;;
32780;SDS011;19136;47.032;15.502;2023-04-06T13:25:37;4.30;;;1.27;;
32780;SDS011;19136;47.032;15.502;2023-04-06T13:28:03;5.50;;;2.15;;
32780;SDS011;19136;47.032;15.502;2023-04-06T13:30:28;4.93;;;1.50;;
32780;SDS011;19136;47.032;15.502;2023-04-06T13:32:54;3.28;;;1.02;;
32780;SDS011;19136;47.032;15.502;2023-04-06T13:35:20;3.10;;;1.67;;
32780;SDS011;19136;47.032;15.502;2023-04-06T13:37:45;3.13;;;1.60;;
32780;SDS011;19136;47.032;15.502;2023-04-06T13:40:11;2.78;;;1.50;;
32780;SDS011;19136;47.032;15.502;2023-04-06T13:42:37;3.90;;;1.60;;
32780;SDS011;19136;47.032;15.502;2023-04-06T13:45:06;3.15;;;1.30;;
32780;SDS011;19136;47.032;15.502;2023-04-06T13:47:32;2.72;;;1.20;;
32780;SDS011;19136;47.032;15.502;2023-04-06T13:49:57;3.38;;;1.25;;
32780;SDS011;19136;47.032;15.502;2023-04-06T13:52:23;3.15;;;1.25;;
32780;SDS011;19136;47.032;15.502;2023-04-06T13:54:49;4.47;;;1.27;;
32780;SDS011;19136;47.032;15.502;2023-04-06T13:57:15;3.33;;;1.48;;
32780;SDS011;19136;47.032;15.502;2023-04-06T13:59:41;3.92;;;1.90;;
32780;SDS011;19136;47.032;15.502;2023-04-06T14:02:07;6.32;;;1.50;;
32780;SDS011;19136;47.032;15.502;2023-04-06T14:04:34;1.67;;;1.13;;
32780;SDS011;19136;47.032;15.502;2023-04-06T14:07:00;2.60;;;1.35;;
32780;SDS011;19136;47.032;15.502;2023-04-06T14:09:27;4.57;;;1.27;;
32780;SDS011;19136;47.032;15.502;2023-04-06T14:11:53;5.10;;;1.35;;
32780;SDS011;19136;47.032;15.502;2023-04-06T14:14:19;5.65;;;1.20;;
32780;SDS011;19136;47.032;15.502;2023-04-06T14:16:45;2.85;;;1.52;;
32780;SDS011;19136;47.032;15.502;2023-04-06T14:19:11;4.07;;;1.20;;
32780;SDS011;19136;47.032;15.502;2023-04-06T14:21:38;2.65;;;1.10;;
32780;SDS011;19136;47.032;15.502;2023-04-06T14:24:05;3.55;;;1.35;;
32780;SDS011;19136;47.032;15.502;2023-04-06T14:26:31;2.63;;;1.30;;
32780;SDS011;19136;47.032;15.502;2023-04-06T14:28:58;4.55;;;1.40;;
32780;SDS011;19136;47.032;15.502;2023-04-06T14:31:27;4.90;;;1.15;;
32780;SDS011;19136;47.032;15.502;2023-04-06T14:33:53;3.38;;;1.20;;